Aviation Digital Data Service (ADDS)

Output produced by METARs form (1148 UTC 25 June 2019)
found at http://www.aviationweather.gov/metar/data/
 
Forecast for: ZKPY (PYONGYANG/SUNAN , CN)
Text: TAF ZKPY 250400Z 2506/2606 20004MPS CAVOK TX31/2605Z TN20/2522Z
Forecast period: 0600 UTC 25 June 2019 to 0600 UTC 26 June 2019
Forecast type: FROM: standard forecast or significant change
Winds: from the SSW (200 degrees) at 9 MPH (8 knots; 4.1 m/s)
Visibility: 6 or more miles 10+ km)
Ceiling: unknown
Clouds: missing
Weather: no significant weather forecast for this period